Time;durP1;ratioP1;P1;durP2;ratioP2;P2;SDS_P1;SDS_P2;PMS_P1;PMS_P2;Temp;Humidity;BMP_temperature;BMP_pressure;BME280_temperature;BME280_humidity;BME280_pressure;Samples;Min_cycle;Max_cycle;Signal;HPM_P1;HPM_P2
2022/01/18 00:01:11;;;;;;;42.13;21.48;;;;;;;4.51;100.00;102627.75;4912632;29;20610;-76
2022/01/18 00:03:36;;;;;;;40.53;20.17;;;;;;;4.53;100.00;102622.06;4946632;29;20069;-76
2022/01/18 00:06:02;;;;;;;39.40;20.67;;;;;;;4.53;100.00;102624.81;4911417;28;20035;-76
2022/01/18 00:08:27;;;;;;;38.63;21.27;;;;;;;4.52;100.00;102631.38;4946857;29;20035;-76
2022/01/18 00:10:53;;;;;;;40.30;20.95;;;;;;;4.52;100.00;102629.47;4926301;29;20078;-76
2022/01/18 00:18:34;;;;;;;42.55;22.58;;;;;;;4.50;100.00;102625.22;4940427;29;20127;-76
2022/01/18 00:23:31;;;;;;;42.30;23.83;;;;;;;4.50;100.00;102626.06;4928900;29;20036;-76
2022/01/18 00:25:58;;;;;;;43.58;22.38;;;;;;;4.50;100.00;102628.81;4963826;28;20039;-76
2022/01/18 00:28:26;;;;;;;41.15;21.98;;;;;;;4.50;100.00;102616.97;4911739;28;20026;-76
2022/01/18 00:39:10;;;;;;;42.55;22.42;;;;;;;4.51;100.00;102614.00;4924642;28;20377;-77
2022/01/18 00:41:35;;;;;;;41.35;22.67;;;;;;;4.49;100.00;102602.38;4927880;29;20031;-76
2022/01/18 00:44:01;;;;;;;46.88;24.90;;;;;;;4.46;100.00;102597.28;4945923;28;20094;-76
2022/01/18 00:46:27;;;;;;;48.70;24.70;;;;;;;4.44;100.00;102604.88;4936759;29;20031;-76
2022/01/18 00:48:55;;;;;;;52.25;25.10;;;;;;;4.41;100.00;102597.03;4954114;28;20035;-76
2022/01/18 00:51:20;;;;;;;44.00;22.08;;;;;;;4.42;100.00;102596.81;4929943;29;20612;-76
2022/01/18 00:53:46;;;;;;;48.83;25.38;;;;;;;4.41;100.00;102595.13;4939828;29;20083;-77
2022/01/18 00:58:42;;;;;;;47.30;24.58;;;;;;;4.40;100.00;102600.81;4959944;29;20031;-75
2022/01/18 01:01:08;;;;;;;42.05;22.48;;;;;;;4.39;100.00;102593.63;4957768;28;20031;-76
2022/01/18 01:03:34;;;;;;;47.13;24.80;;;;;;;4.40;100.00;102598.94;4911728;28;20030;-76
2022/01/18 01:06:00;;;;;;;44.25;23.52;;;;;;;4.41;100.00;102597.03;4944199;29;20041;-75
2022/01/18 01:08:26;;;;;;;44.90;22.95;;;;;;;4.41;100.00;102597.88;4955997;28;20492;-76
2022/01/18 01:10:52;;;;;;;44.42;22.80;;;;;;;4.44;100.00;102597.44;4955479;28;20062;-76
2022/01/18 01:13:17;;;;;;;44.80;24.52;;;;;;;4.43;100.00;102594.88;4929480;29;20507;-76
2022/01/18 01:18:35;;;;;;;43.75;23.52;;;;;;;4.43;100.00;102593.00;4958196;28;20549;-76
2022/01/18 01:42:42;;;;;;;52.17;25.67;;;;;;;4.34;100.00;102571.34;4963343;28;20062;-76
2022/01/18 01:45:03;;;;;;;53.63;25.45;;;;;;;4.35;100.00;102575.81;4924359;29;20059;-76
2022/01/18 01:47:35;;;;;;;56.83;27.73;;;;;;;4.31;100.00;102566.25;4929350;28;20038;-76
2022/01/18 01:50:03;;;;;;;51.78;25.83;;;;;;;4.34;100.00;102552.09;4926645;29;20035;-76
2022/01/18 01:52:29;;;;;;;49.22;25.50;;;;;;;4.37;100.00;102548.94;4945688;29;20169;-77
2022/01/18 01:54:54;;;;;;;55.72;27.30;;;;;;;4.36;100.00;102541.75;4958287;28;20031;-76
2022/01/18 01:57:20;;;;;;;47.65;24.48;;;;;;;4.38;100.00;102537.75;4929876;29;20102;-76
2022/01/18 01:59:45;;;;;;;55.78;27.10;;;;;;;4.39;100.00;102538.59;4955203;28;20035;-76
2022/01/18 02:02:11;;;;;;;54.72;28.33;;;;;;;4.36;100.00;102537.09;4950191;28;20039;-77
2022/01/18 02:04:37;;;;;;;50.95;26.83;;;;;;;4.36;100.00;102525.25;4925543;28;20032;-77
2022/01/18 02:07:02;;;;;;;52.15;26.63;;;;;;;4.34;100.00;102528.19;4941229;29;20039;-76
2022/01/18 02:09:28;;;;;;;50.67;26.63;;;;;;;4.34;100.00;102522.69;4934732;29;20056;-75
2022/01/18 02:11:56;;;;;;;53.63;28.05;;;;;;;4.35;100.00;102518.06;4941164;28;20039;-76
2022/01/18 02:14:23;;;;;;;46.38;25.63;;;;;;;4.36;100.00;102509.56;4955038;29;20499;-76
2022/01/18 02:22:17;;;;;;;44.65;24.95;;;;;;;4.36;100.00;102526.09;4971334;28;20082;-76
2022/01/18 02:24:43;;;;;;;50.20;24.20;;;;;;;4.41;100.00;102529.09;4956710;28;20023;-75
2022/01/18 02:27:08;;;;;;;46.80;24.90;;;;;;;4.38;100.00;102545.16;4942456;29;20027;-76
2022/01/18 02:29:34;;;;;;;47.47;24.52;;;;;;;4.38;100.00;102534.16;4912890;29;20027;-76
2022/01/18 02:32:00;;;;;;;42.85;23.02;;;;;;;4.39;100.00;102535.84;4939658;29;20035;-76
2022/01/18 02:34:26;;;;;;;45.75;21.13;;;;;;;4.39;100.00;102535.84;4901569;29;20043;-76
2022/01/18 02:36:57;;;;;;;43.95;22.45;;;;;;;4.37;100.00;102540.69;4967574;28;20464;-76
2022/01/18 02:39:27;;;;;;;41.83;22.90;;;;;;;4.36;100.00;102544.50;4941607;28;20456;-76
2022/01/18 02:41:54;;;;;;;42.90;21.55;;;;;;;4.38;100.00;102553.41;4960388;28;20039;-76
2022/01/18 02:44:20;;;;;;;41.10;22.00;;;;;;;4.39;100.00;102544.09;4965089;28;20046;-76
2022/01/18 02:46:45;;;;;;;44.72;21.67;;;;;;;4.37;100.00;102552.53;4957445;28;20039;-76
2022/01/18 02:49:11;;;;;;;42.17;21.17;;;;;;;4.39;100.00;102546.84;4949360;28;20073;-76
2022/01/18 02:51:36;;;;;;;42.42;21.95;;;;;;;4.37;100.00;102552.53;4927053;29;20030;-76
2022/01/18 02:54:03;;;;;;;42.83;21.70;;;;;;;4.37;100.00;102549.78;4957909;28;20047;-76
2022/01/18 02:57:00;;;;;;;42.95;22.25;;;;;;;4.38;100.00;102546.00;4941714;29;20032;-75
2022/01/18 02:59:33;;;;;;;46.50;23.25;;;;;;;4.39;100.00;102535.84;4951923;28;20106;-76
2022/01/18 03:04:45;;;;;;;42.50;22.55;;;;;;;4.43;100.00;102537.13;4927132;29;20050;-76
2022/01/18 03:07:11;;;;;;;43.70;24.20;;;;;;;4.44;100.00;102533.31;4971176;28;20028;-76
2022/01/18 03:09:37;;;;;;;46.08;24.00;;;;;;;4.43;100.00;102531.63;4939288;29;20090;-76
2022/01/18 03:12:03;;;;;;;46.33;25.55;;;;;;;4.40;100.00;102537.53;4952273;28;20476;-76
2022/01/18 03:14:28;;;;;;;45.17;23.02;;;;;;;4.44;100.00;102538.84;4958679;28;20066;-76
2022/01/18 03:16:53;;;;;;;44.42;23.30;;;;;;;4.47;100.00;102538.41;4912021;29;20023;-76
2022/01/18 03:19:19;;;;;;;47.13;23.30;;;;;;;4.47;100.00;102530.16;4950696;28;20035;-76
2022/01/18 03:21:45;;;;;;;43.85;23.60;;;;;;;4.46;100.00;102526.56;4926022;29;20038;-75
2022/01/18 03:24:19;;;;;;;43.85;23.10;;;;;;;4.43;100.00;102526.97;4955757;28;20031;-76
2022/01/18 03:29:29;;;;;;;42.67;21.77;;;;;;;4.42;100.00;102511.50;4949244;28;20056;-76
2022/01/18 03:31:55;;;;;;;43.72;21.90;;;;;;;4.42;100.00;102503.25;4942625;29;20039;-76
2022/01/18 03:34:20;;;;;;;50.33;23.63;;;;;;;4.40;100.00;102507.25;4955662;28;20027;-76
2022/01/18 03:36:46;;;;;;;38.25;20.85;;;;;;;4.40;100.00;102504.50;4942266;28;20038;-76
2022/01/18 03:39:12;;;;;;;47.42;22.73;;;;;;;4.40;100.00;102504.50;4920361;29;20056;-76
2022/01/18 03:41:37;;;;;;;36.95;20.92;;;;;;;4.40;100.00;102510.88;4963974;28;20043;-76
2022/01/18 03:44:03;;;;;;;47.63;23.00;;;;;;;4.41;100.00;102506.22;4930338;29;20043;-76
2022/01/18 03:46:28;;;;;;;44.40;22.65;;;;;;;4.40;100.00;102515.50;4935863;29;20388;-76
2022/01/18 03:48:54;;;;;;;36.75;21.27;;;;;;;4.39;100.00;102511.06;4955583;29;20039;-76
2022/01/18 03:51:20;;;;;;;43.10;21.15;;;;;;;4.38;100.00;102512.13;4955899;28;20396;-76
2022/01/18 03:53:45;;;;;;;45.38;22.33;;;;;;;4.37;100.00;102505.75;4940508;29;20027;-76
2022/01/18 03:56:11;;;;;;;39.55;21.75;;;;;;;4.36;100.00;102505.97;4926573;28;20057;-76
2022/01/18 03:58:36;;;;;;;38.63;21.05;;;;;;;4.35;100.00;102521.66;4964670;28;20032;-76
2022/01/18 04:01:03;;;;;;;41.70;20.58;;;;;;;4.34;100.00;102508.09;4950017;28;20027;-76
2022/01/18 04:03:28;;;;;;;39.13;20.88;;;;;;;4.30;100.00;102509.56;4936746;29;20504;-76
2022/01/18 04:05:54;;;;;;;35.65;19.67;;;;;;;4.29;100.00;102508.72;4968598;28;20097;-76
2022/01/18 04:08:20;;;;;;;43.58;22.00;;;;;;;4.21;100.00;102501.47;4924480;28;20035;-76
2022/01/18 04:10:46;;;;;;;38.25;21.13;;;;;;;4.19;100.00;102503.56;4969192;28;20057;-76
2022/01/18 04:13:11;;;;;;;38.72;21.02;;;;;;;4.16;100.00;102497.63;4926593;29;20046;-76
2022/01/18 04:15:37;;;;;;;41.70;21.02;;;;;;;4.12;100.00;102491.66;4908108;29;20031;-76
2022/01/18 04:18:16;;;;;;;37.90;21.08;;;;;;;4.07;100.00;102483.19;4940105;29;20035;-76
2022/01/18 04:28:59;;;;;;;33.05;18.27;;;;;;;3.81;100.00;102456.38;4958303;28;20039;-76
2022/01/18 04:31:25;;;;;;;35.33;18.77;;;;;;;3.72;100.00;102471.34;4940756;29;20079;-76
2022/01/18 04:33:51;;;;;;;37.53;18.90;;;;;;;3.66;100.00;102469.41;4951663;28;20109;-75
2022/01/18 04:36:17;;;;;;;31.88;16.95;;;;;;;3.61;100.00;102469.97;4945182;29;20404;-76
2022/01/18 04:38:42;;;;;;;32.90;17.52;;;;;;;3.57;100.00;102465.94;4915938;28;20031;-76
2022/01/18 04:41:12;;;;;;;36.28;18.92;;;;;;;3.48;100.00;102467.13;4928362;29;20031;-76
2022/01/18 04:49:05;;;;;;;31.65;16.33;;;;;;;3.27;100.00;102463.38;4928233;29;20035;-76
2022/01/18 04:51:30;;;;;;;30.00;16.25;;;;;;;3.23;100.00;102470.31;4941554;29;20058;-76
2022/01/18 04:53:58;;;;;;;32.63;17.60;;;;;;;3.18;100.00;102464.56;4945277;29;20035;-75
2022/01/18 04:57:51;;;;;;;31.95;16.73;;;;;;;3.08;100.00;102456.66;4944642;28;20031;-76
2022/01/18 04:59:14;;;;;;;36.15;17.90;;;;;;;3.02;100.00;102454.69;4956110;29;20121;-76
2022/01/18 05:01:40;;;;;;;34.38;16.55;;;;;;;3.00;100.00;102464.16;4944845;29;20043;-76
2022/01/18 05:04:06;;;;;;;32.30;18.15;;;;;;;2.89;100.00;102458.16;4942249;28;20059;-76
2022/01/18 05:06:33;;;;;;;32.83;16.55;;;;;;;2.85;100.00;102459.59;4927258;29;20042;-75
2022/01/18 05:09:01;;;;;;;34.03;17.90;;;;;;;2.78;100.00;102458.66;4961480;28;20031;-75
2022/01/18 05:11:31;;;;;;;32.55;17.60;;;;;;;2.72;100.00;102464.94;4942591;29;20063;-75
2022/01/18 05:14:16;;;;;;;35.72;17.60;;;;;;;2.69;100.00;102462.59;4944434;29;20712;-76
2022/01/18 05:16:55;;;;;;;36.42;17.67;;;;;;;2.64;100.00;102460.41;4913490;29;20035;-75
2022/01/18 05:24:18;;;;;;;33.33;16.73;;;;;;;2.49;100.00;102464.25;4950861;29;20110;-76
2022/01/18 05:26:43;;;;;;;33.15;16.95;;;;;;;2.42;100.00;102462.28;4958019;28;20066;-76
2022/01/18 05:29:09;;;;;;;32.33;17.55;;;;;;;2.36;100.00;102463.03;4957483;28;20047;-75
2022/01/18 05:31:34;;;;;;;32.53;16.63;;;;;;;2.32;100.00;102461.72;4929606;28;20038;-75
2022/01/18 05:34:00;;;;;;;32.88;16.65;;;;;;;2.28;100.00;102471.38;4943375;29;20034;-76
2022/01/18 05:36:25;;;;;;;33.42;17.50;;;;;;;2.19;100.00;102470.63;4956559;28;20409;-76
2022/01/18 05:38:51;;;;;;;34.35;17.90;;;;;;;2.13;100.00;102474.13;4957042;28;20515;-76
2022/01/18 05:41:17;;;;;;;34.78;18.10;;;;;;;2.12;100.00;102471.59;4961672;28;20062;-76
2022/01/18 05:43:42;;;;;;;39.10;19.83;;;;;;;2.07;100.00;102477.63;4971299;28;20059;-75
2022/01/18 05:46:08;;;;;;;34.00;18.67;;;;;;;2.06;100.00;102478.66;4943147;28;20031;-76
2022/01/18 05:48:33;;;;;;;37.05;18.98;;;;;;;2.02;100.00;102471.88;4927996;29;20042;-76
2022/01/18 05:51:01;;;;;;;38.00;18.50;;;;;;;1.96;100.00;102473.47;4944494;29;20055;-75
2022/01/18 05:53:27;;;;;;;37.63;19.02;;;;;;;1.92;100.00;102471.28;4940944;29;20027;-75
2022/01/18 05:55:53;;;;;;;36.17;19.38;;;;;;;1.94;100.00;102470.06;4957721;28;20035;-75
2022/01/18 05:58:19;;;;;;;35.35;18.83;;;;;;;1.85;100.00;102471.22;4946668;29;20138;-75
2022/01/18 06:00:50;;;;;;;40.53;19.23;;;;;;;1.84;100.00;102476.84;4928646;29;20098;-75
2022/01/18 06:03:24;;;;;;;35.42;18.23;;;;;;;1.82;100.00;102476.22;4954645;28;20036;-75
2022/01/18 06:08:34;;;;;;;50.50;23.00;;;;;;;1.64;100.00;102474.66;4957534;29;20041;-77
2022/01/18 06:10:59;;;;;;;46.65;22.25;;;;;;;1.66;100.00;102474.50;4941422;29;20027;-77
2022/01/18 06:13:25;;;;;;;45.08;22.98;;;;;;;1.64;100.00;102480.16;4927587;28;20027;-77
2022/01/18 06:15:50;;;;;;;45.13;21.70;;;;;;;1.68;100.00;102478.75;4924451;29;20396;-77
2022/01/18 06:18:17;;;;;;;51.08;24.08;;;;;;;1.69;100.00;102479.59;4957705;28;20031;-77
2022/01/18 06:20:43;;;;;;;62.85;25.98;;;;;;;1.68;100.00;102480.66;4943723;28;20399;-75
2022/01/18 06:23:09;;;;;;;61.05;26.75;;;;;;;1.70;100.00;102478.56;4943817;29;20038;-75
2022/01/18 06:25:35;;;;;;;62.65;28.30;;;;;;;1.69;100.00;102476.84;4943987;29;20459;-75
2022/01/18 06:28:00;;;;;;;66.00;28.52;;;;;;;1.67;100.00;102485.28;4928992;28;20034;-75
2022/01/18 06:30:26;;;;;;;62.95;26.67;;;;;;;1.66;100.00;102483.56;4952175;28;20038;-76
2022/01/18 06:32:51;;;;;;;65.47;28.17;;;;;;;1.67;100.00;102477.06;4946297;28;20497;-75
2022/01/18 06:35:17;;;;;;;64.38;26.65;;;;;;;1.71;100.00;102485.75;4941793;29;20448;-75
2022/01/18 06:37:42;;;;;;;65.55;29.23;;;;;;;1.72;100.00;102476.47;4938576;29;20392;-75
2022/01/18 06:40:09;;;;;;;66.60;27.90;;;;;;;1.71;100.00;102489.34;4927833;29;20117;-75
2022/01/18 06:42:34;;;;;;;62.10;28.15;;;;;;;1.79;100.00;102494.72;4940029;29;20069;-76
2022/01/18 06:45:00;;;;;;;75.85;30.77;;;;;;;1.79;100.00;102488.41;4927307;29;20102;-76
2022/01/18 06:47:25;;;;;;;76.18;29.98;;;;;;;1.79;100.00;102496.63;4921921;29;20055;-76
2022/01/18 06:49:53;;;;;;;77.18;30.70;;;;;;;1.81;100.00;102490.94;4943563;28;20400;-76
2022/01/18 06:52:19;;;;;;;80.88;32.13;;;;;;;1.84;100.00;102491.44;4926685;29;20447;-76
2022/01/18 06:54:44;;;;;;;82.53;30.42;;;;;;;1.86;100.00;102500.28;4943199;28;20027;-76
2022/01/18 06:57:10;;;;;;;88.68;35.28;;;;;;;1.84;100.00;102496.91;4926665;29;20043;-76
2022/01/18 06:59:35;;;;;;;93.72;35.13;;;;;;;1.88;100.00;102503.72;4945561;29;20031;-75
2022/01/18 07:02:01;;;;;;;87.95;34.03;;;;;;;1.92;100.00;102505.06;4927375;29;20515;-76
2022/01/18 07:04:27;;;;;;;94.65;35.75;;;;;;;1.94;100.00;102492.00;4900956;29;20044;-76
2022/01/18 07:06:53;;;;;;;97.68;36.38;;;;;;;1.97;100.00;102496.25;4932676;29;20034;-76
2022/01/18 07:09:23;;;;;;;89.32;34.85;;;;;;;1.98;100.00;102501.56;4927203;29;20086;-75
2022/01/18 07:11:56;;;;;;;105.05;37.22;;;;;;;2.00;100.00;102495.88;4950597;28;20110;-76
2022/01/18 07:14:21;;;;;;;93.30;37.00;;;;;;;2.04;100.00;102486.25;4942028;28;20110;-76
2022/01/18 07:16:47;;;;;;;109.93;38.47;;;;;;;2.05;100.00;102490.66;4943332;29;20035;-75
2022/01/18 07:19:12;;;;;;;102.80;38.65;;;;;;;2.05;100.00;102492.56;4928820;29;20027;-75
2022/01/18 07:21:38;;;;;;;97.38;36.42;;;;;;;2.06;100.00;102484.13;4939511;29;20059;-75
2022/01/18 07:24:06;;;;;;;102.50;38.13;;;;;;;2.05;100.00;102476.97;4955937;28;20039;-75
2022/01/18 07:26:32;;;;;;;101.60;35.97;;;;;;;2.09;100.00;102489.28;4943684;29;20034;-73
2022/01/18 07:28:58;;;;;;;109.00;38.22;;;;;;;2.12;100.00;102482.56;4946697;28;20031;-74
2022/01/18 07:31:23;;;;;;;112.15;40.58;;;;;;;2.11;100.00;102489.06;4939897;29;20081;-73
2022/01/18 07:33:49;;;;;;;119.72;39.05;;;;;;;2.11;100.00;102487.16;4934101;28;20039;-73
2022/01/18 07:36:14;;;;;;;107.78;40.20;;;;;;;2.11;100.00;102489.91;4911718;29;20031;-73
2022/01/18 07:38:40;;;;;;;109.95;39.38;;;;;;;2.13;100.00;102489.72;4929760;28;20086;-73
2022/01/18 07:41:05;;;;;;;109.78;39.13;;;;;;;2.12;100.00;102488.88;4940079;28;20122;-73
2022/01/18 07:43:31;;;;;;;102.68;39.78;;;;;;;2.13;100.00;102496.06;4941492;29;20038;-74
2022/01/18 07:45:56;;;;;;;105.53;39.17;;;;;;;2.17;100.00;102508.38;4936257;28;20035;-73
2022/01/18 07:48:23;;;;;;;104.00;36.85;;;;;;;2.19;100.00;102505.41;4881301;29;20042;-74
2022/01/18 07:50:51;;;;;;;93.57;37.03;;;;;;;2.21;100.00;102500.59;4906933;28;20066;-74
2022/01/18 07:53:17;;;;;;;95.25;35.97;;;;;;;2.21;100.00;102504.19;4913763;28;20120;-73
2022/01/18 07:55:42;;;;;;;98.68;36.50;;;;;;;2.22;100.00;102499.56;4920914;28;20435;-73
2022/01/18 07:58:08;;;;;;;101.55;35.50;;;;;;;2.26;100.00;102494.53;4950856;28;20039;-73
2022/01/18 08:00:33;;;;;;;91.40;34.65;;;;;;;2.26;100.00;102500.00;4927119;28;20031;-73
2022/01/18 08:02:59;;;;;;;93.22;34.78;;;;;;;2.27;100.00;102499.00;4935390;29;20488;-73
2022/01/18 08:05:25;;;;;;;87.32;34.28;;;;;;;2.27;100.00;102505.31;4926331;29;20109;-73
2022/01/18 08:07:50;;;;;;;92.32;35.42;;;;;;;2.29;100.00;102503.25;4918378;29;20035;-73
2022/01/18 08:10:17;;;;;;;91.50;33.53;;;;;;;2.28;100.00;102501.53;4943957;29;20047;-73
2022/01/18 08:12:43;;;;;;;100.60;38.17;;;;;;;2.26;100.00;102508.25;4958389;28;20035;-74
2022/01/18 08:15:18;;;;;;;97.13;36.67;;;;;;;2.29;100.00;102508.72;4950398;28;20027;-73
2022/01/18 08:17:44;;;;;;;86.35;33.60;;;;;;;2.30;100.00;102517.81;4969303;28;20031;-73
2022/01/18 08:20:13;;;;;;;94.35;35.97;;;;;;;2.30;100.00;102510.41;4959111;28;20026;-73
2022/01/18 08:22:45;;;;;;;89.35;36.13;;;;;;;2.29;100.00;102513.38;4946784;28;20057;-73
2022/01/18 08:25:11;;;;;;;95.55;36.95;;;;;;;2.30;100.00;102517.81;4950662;28;20031;-73
2022/01/18 08:27:37;;;;;;;100.95;36.47;;;;;;;2.25;100.00;102510.13;4922903;29;21291;-73
2022/01/18 08:30:05;;;;;;;99.32;34.65;;;;;;;2.28;100.00;102508.91;4935151;28;20095;-73
2022/01/18 08:32:30;;;;;;;105.40;36.15;;;;;;;2.26;100.00;102513.72;4898117;29;20032;-73
2022/01/18 08:34:56;;;;;;;106.60;37.05;;;;;;;2.28;100.00;102515.22;4927891;29;20400;-73
2022/01/18 08:37:21;;;;;;;99.95;36.10;;;;;;;2.29;100.00;102505.16;4930508;28;20035;-73
2022/01/18 08:39:47;;;;;;;95.13;35.35;;;;;;;2.34;100.00;102498.03;4913548;29;20056;-73
2022/01/18 08:42:13;;;;;;;92.20;34.63;;;;;;;2.34;100.00;102503.53;4973038;28;20042;-73
2022/01/18 08:44:43;;;;;;;92.80;34.25;;;;;;;2.36;100.00;102511.53;4912018;28;20062;-73
2022/01/18 08:47:10;;;;;;;88.55;33.88;;;;;;;2.36;100.00;102512.41;4925128;29;20035;-73
2022/01/18 08:49:36;;;;;;;99.40;37.00;;;;;;;2.35;100.00;102507.97;4936226;29;20037;-73
2022/01/18 08:52:01;;;;;;;91.35;32.83;;;;;;;2.35;100.00;102510.69;4928256;29;20027;-73
2022/01/18 08:54:27;;;;;;;97.95;35.00;;;;;;;2.35;100.00;102497.00;4915798;29;20054;-73
2022/01/18 08:56:52;;;;;;;97.95;34.83;;;;;;;2.35;100.00;102496.16;4912743;28;20035;-73
2022/01/18 08:59:18;;;;;;;95.68;35.90;;;;;;;2.38;100.00;102493.88;4933600;29;20040;-73
2022/01/18 09:01:43;;;;;;;98.88;36.80;;;;;;;2.38;100.00;102499.34;4972452;28;20436;-73
2022/01/18 09:04:09;;;;;;;99.45;35.95;;;;;;;2.40;100.00;102500.00;4932312;28;20034;-73
2022/01/18 09:06:37;;;;;;;96.22;35.05;;;;;;;2.43;100.00;102502.38;4935790;28;20485;-73
2022/01/18 09:09:04;;;;;;;86.30;34.72;;;;;;;2.49;100.00;102502.66;4949109;28;20042;-74
2022/01/18 09:11:31;;;;;;;92.95;35.72;;;;;;;2.51;100.00;102497.81;4926746;28;20400;-73
2022/01/18 09:13:56;;;;;;;100.38;35.92;;;;;;;2.52;100.00;102494.03;4912018;29;20051;-73
2022/01/18 09:16:22;;;;;;;92.38;35.35;;;;;;;2.53;100.00;102493.00;4911768;28;20059;-73
2022/01/18 09:18:48;;;;;;;90.03;34.80;;;;;;;2.52;100.00;102489.41;4957547;29;20035;-73
2022/01/18 09:21:14;;;;;;;91.75;36.47;;;;;;;2.56;100.00;102495.34;4925698;29;20036;-73
2022/01/18 09:23:40;;;;;;;92.35;35.65;;;;;;;2.60;100.00;102491.19;4970644;28;20101;-73
2022/01/18 09:26:06;;;;;;;85.45;33.42;;;;;;;2.70;100.00;102502.69;4928218;29;20035;-74
2022/01/18 09:28:32;;;;;;;86.78;34.92;;;;;;;2.76;100.00;102501.94;4946998;29;20062;-73
2022/01/18 09:30:57;;;;;;;75.72;31.15;;;;;;;2.85;100.00;102499.91;4940868;28;20082;-73
2022/01/18 09:33:23;;;;;;;84.18;35.45;;;;;;;2.88;100.00;102491.28;4938946;29;20042;-73
2022/01/18 09:35:48;;;;;;;79.65;32.85;;;;;;;2.90;100.00;102491.97;4922427;28;20400;-73
2022/01/18 09:38:14;;;;;;;87.03;34.35;;;;;;;2.93;100.00;102504.44;4930462;29;20031;-73
2022/01/18 09:40:40;;;;;;;86.82;33.08;;;;;;;2.95;100.00;102499.59;4929238;29;20134;-73
2022/01/18 09:43:12;;;;;;;82.55;32.33;;;;;;;3.02;100.00;102506.00;4896117;29;20400;-73
2022/01/18 09:45:39;;;;;;;76.40;30.95;;;;;;;3.02;100.00;102506.00;4915959;29;20055;-73
2022/01/18 09:48:05;;;;;;;76.90;31.15;;;;;;;3.04;100.00;102506.66;4943229;29;20027;-73
2022/01/18 09:50:33;;;;;;;77.03;28.70;;;;;;;3.05;100.00;102508.38;4933826;28;20070;-74
2022/01/18 09:52:59;;;;;;;74.70;30.55;;;;;;;3.08;100.00;102500.56;4941785;29;20492;-73
2022/01/18 09:55:27;;;;;;;72.07;29.63;;;;;;;3.08;100.00;102506.06;4952028;28;20084;-73
2022/01/18 09:57:53;;;;;;;76.93;31.10;;;;;;;3.13;100.00;102508.22;4910710;29;20031;-73
2022/01/18 10:00:19;;;;;;;71.35;30.10;;;;;;;3.20;100.00;102514.63;4925625;29;20042;-74
2022/01/18 10:02:44;;;;;;;66.72;29.92;;;;;;;3.20;100.00;102506.38;4926911;29;20487;-73
2022/01/18 10:05:18;;;;;;;68.00;28.23;;;;;;;3.25;100.00;102512.16;4956910;28;20102;-73
2022/01/18 10:07:43;;;;;;;57.92;26.65;;;;;;;3.30;100.00;102508.81;4938245;29;20425;-73
2022/01/18 10:10:09;;;;;;;59.40;26.65;;;;;;;3.32;100.00;102502.09;4942514;29;20082;-73
2022/01/18 10:12:34;;;;;;;65.20;26.35;;;;;;;3.38;100.00;102505.09;4925931;28;20030;-73
2022/01/18 10:15:01;;;;;;;61.78;26.80;;;;;;;3.43;100.00;102514.44;4954748;28;20027;-73
2022/01/18 10:17:30;;;;;;;57.08;25.20;;;;;;;3.48;100.00;102505.59;4970122;28;20042;-73
2022/01/18 10:20:16;;;;;;;51.17;23.50;;;;;;;3.54;100.00;102510.31;4946091;28;20052;-74
2022/01/18 10:22:48;;;;;;;53.72;23.25;;;;;;;3.58;100.00;102512.44;4937997;29;20038;-73
2022/01/18 10:25:25;;;;;;;53.80;23.40;;;;;;;3.60;100.00;102504.00;4938288;29;20089;-73
2022/01/18 10:27:53;;;;;;;50.78;22.15;;;;;;;3.65;100.00;102496.03;4939187;29;20031;-74
2022/01/18 10:30:32;;;;;;;44.30;19.98;;;;;;;3.66;100.00;102508.72;4941128;29;20027;-73
2022/01/18 10:33:10;;;;;;;43.80;20.10;;;;;;;3.73;100.00;102497.75;4925991;29;20393;-73
2022/01/18 10:35:35;;;;;;;42.53;20.35;;;;;;;3.78;100.00;102498.00;4933930;28;20019;-73
2022/01/18 10:38:01;;;;;;;41.10;18.90;;;;;;;3.88;100.00;102494.91;4945662;28;20075;-76
2022/01/18 10:40:26;;;;;;;44.40;20.10;;;;;;;3.95;100.00;102491.16;4952871;28;20046;-76
2022/01/18 10:42:53;;;;;;;43.72;20.30;;;;;;;4.02;100.00;102486.53;4941860;28;20629;-75
2022/01/18 10:45:30;;;;;;;40.72;20.80;;;;;;;4.08;100.00;102479.38;4920225;29;20039;-75
2022/01/18 10:47:57;;;;;;;48.17;21.65;;;;;;;4.16;100.00;102475.63;4952437;28;20049;-76
2022/01/18 10:50:23;;;;;;;43.25;20.38;;;;;;;4.20;100.00;102472.25;4958051;28;20483;-76
2022/01/18 10:52:52;;;;;;;44.33;19.63;;;;;;;4.26;100.00;102470.59;4917156;29;20035;-76
2022/01/18 10:55:22;;;;;;;39.92;19.38;;;;;;;4.28;100.00;102462.97;4939330;29;20404;-76
2022/01/18 10:57:48;;;;;;;40.85;19.58;;;;;;;4.31;100.00;102461.72;4957699;29;20182;-75
2022/01/18 11:00:22;;;;;;;36.42;18.75;;;;;;;4.34;100.00;102458.56;4937049;29;20106;-76
2022/01/18 11:02:52;;;;;;;37.22;19.10;;;;;;;4.37;100.00;102452.66;4955848;28;20124;-76
2022/01/18 11:05:22;;;;;;;36.78;18.38;;;;;;;4.41;100.00;102454.78;4939063;29;20035;-76
2022/01/18 11:07:48;;;;;;;38.40;17.33;;;;;;;4.47;100.00;102450.38;4956821;28;20066;-75
2022/01/18 11:10:16;;;;;;;36.35;17.35;;;;;;;4.46;100.00;102455.03;4941327;29;20046;-76
2022/01/18 11:12:51;;;;;;;37.20;17.85;;;;;;;4.51;100.00;102451.66;4934547;28;20031;-76
2022/01/18 11:15:20;;;;;;;37.72;18.35;;;;;;;4.56;100.00;102448.28;4948181;28;20089;-72
2022/01/18 11:17:51;;;;;;;36.28;17.48;;;;;;;4.59;100.00;102445.97;4949446;28;20034;-72
2022/01/18 11:20:20;;;;;;;34.60;16.70;;;;;;;4.63;100.00;102438.16;4942394;29;20447;-72
2022/01/18 11:22:47;;;;;;;32.35;17.48;;;;;;;4.65;100.00;102436.91;4957168;28;20041;-72
2022/01/18 11:25:13;;;;;;;30.13;17.15;;;;;;;4.73;100.00;102440.50;4953793;28;20072;-72
2022/01/18 11:27:42;;;;;;;31.80;16.95;;;;;;;4.70;100.00;102442.59;4943878;29;20031;-72
2022/01/18 11:30:08;;;;;;;32.53;17.30;;;;;;;4.73;100.00;102444.09;4940150;29;20043;-72
2022/01/18 11:32:34;;;;;;;36.50;18.17;;;;;;;4.72;100.00;102442.41;4956146;28;20686;-72
2022/01/18 11:35:25;;;;;;;34.33;17.08;;;;;;;4.75;100.00;102443.91;4924994;29;20063;-73
2022/01/18 11:38:13;;;;;;;38.22;18.50;;;;;;;4.77;100.00;102442.63;4940964;29;20453;-73
2022/01/18 11:40:48;;;;;;;32.42;17.08;;;;;;;4.77;100.00;102441.78;4959825;28;20052;-73
2022/01/18 11:43:13;;;;;;;32.75;16.33;;;;;;;4.73;100.00;102443.25;4960191;28;20039;-75
2022/01/18 11:45:43;;;;;;;37.05;17.75;;;;;;;4.77;100.00;102441.78;4927553;29;20476;-73
2022/01/18 11:48:18;;;;;;;36.78;16.80;;;;;;;4.73;100.00;102435.84;4913864;28;20114;-73
2022/01/18 11:50:45;;;;;;;36.10;17.20;;;;;;;4.78;100.00;102424.22;4958676;28;20058;-73
2022/01/18 11:53:23;;;;;;;37.75;17.95;;;;;;;4.75;100.00;102430.13;4932272;28;20035;-73
2022/01/18 11:55:50;;;;;;;38.03;17.52;;;;;;;4.80;100.00;102427.59;4961024;29;20449;-73
2022/01/18 11:58:16;;;;;;;38.17;17.60;;;;;;;4.85;100.00;102420.41;4943396;29;20031;-72
2022/01/18 12:00:57;;;;;;;30.85;16.45;;;;;;;4.88;100.00;102413.66;4938701;29;20030;-73
2022/01/18 12:03:27;;;;;;;35.85;17.70;;;;;;;4.92;100.00;102407.50;4919206;29;20114;-73
2022/01/18 12:05:59;;;;;;;33.08;17.63;;;;;;;4.98;100.00;102418.72;4926369;29;20396;-73
2022/01/18 12:08:33;;;;;;;35.72;16.20;;;;;;;4.97;100.00;102411.53;4936881;28;20061;-73
2022/01/18 12:10:59;;;;;;;39.63;19.58;;;;;;;4.94;100.00;102410.03;4946557;29;20111;-73
2022/01/18 12:13:29;;;;;;;33.25;16.88;;;;;;;4.97;100.00;102406.03;4944739;29;20066;-73
2022/01/18 12:15:57;;;;;;;32.72;17.25;;;;;;;5.00;100.00;102408.34;4981431;28;20042;-73
2022/01/18 12:18:26;;;;;;;35.53;16.88;;;;;;;5.01;100.00;102399.88;4968552;28;20499;-73
2022/01/18 12:21:06;;;;;;;35.92;17.70;;;;;;;5.00;100.00;102400.09;4931331;29;20125;-73
2022/01/18 12:23:42;;;;;;;33.97;18.20;;;;;;;5.03;100.00;102394.16;4941243;29;20396;-73
2022/01/18 12:29:19;;;;;;;29.33;16.73;;;;;;;5.13;100.00;102378.91;4971142;28;20497;-73